createdAt,value
2019-02-17T00:04:02.525Z,141.00
2019-02-17T00:09:06.236Z,145.00
2019-02-17T00:14:10.459Z,143.00
2019-02-17T00:19:14.661Z,149.40
2019-02-17T00:24:27.674Z,153.75
2019-02-17T00:29:32.238Z,146.67
2019-02-17T00:34:40.400Z,150.73
2019-02-17T00:39:43.332Z,150.25
2019-02-17T00:44:48.631Z,139.80
2019-02-17T00:49:52.434Z,146.60
2019-02-17T00:55:00.286Z,157.36
2019-02-17T01:00:05.832Z,157.00
2019-02-17T01:05:16.360Z,154.58
2019-02-17T01:10:20.426Z,157.40
2019-02-17T01:15:25.837Z,164.43
2019-02-17T01:20:29.362Z,166.80
2019-02-17T01:25:38.335Z,159.42
2019-02-17T01:30:46.474Z,162.36
2019-02-17T01:35:54.571Z,165.18
2019-02-17T01:40:57.496Z,170.75
2019-02-17T01:46:05.436Z,171.00
2019-02-17T01:51:09.903Z,161.50
2019-02-17T01:56:18.751Z,155.25
2019-02-17T02:01:28.319Z,155.42
2019-02-17T02:06:36.879Z,153.09
2019-02-17T02:11:39.768Z,156.50
2019-02-17T02:16:44.179Z,153.00
2019-02-17T02:21:52.938Z,152.33
2019-02-17T02:26:56.518Z,145.40
2019-02-17T02:32:01.049Z,145.00
2019-02-17T02:37:05.393Z,160.00
2019-02-17T02:42:18.915Z,158.08
2019-02-17T02:47:28.239Z,150.00
2019-02-17T02:52:37.607Z,155.62
2019-02-17T02:57:41.322Z,164.00
2019-02-17T03:02:52.427Z,161.14
2019-02-17T03:07:57.004Z,157.00
2019-02-17T03:13:00.854Z,148.80
2019-02-17T03:18:09.500Z,152.50
2019-02-17T03:23:18.158Z,154.75
2019-02-17T03:28:21.702Z,147.60
2019-02-17T03:33:33.119Z,154.71
2019-02-17T03:38:43.162Z,148.33
2019-02-17T03:43:53.569Z,152.54
2019-02-17T03:48:58.142Z,155.00
2019-02-17T03:54:06.904Z,146.45
2019-02-17T03:59:10.502Z,138.00
2019-02-17T04:04:14.832Z,130.00
2019-02-17T04:09:23.877Z,123.25
2019-02-17T04:14:35.926Z,119.45
2019-02-17T04:19:41.567Z,105.29
2019-02-17T04:24:46.873Z,111.29
2019-02-17T04:29:57.759Z,109.21
2019-02-17T04:35:02.008Z,101.00
2019-02-17T04:40:06.300Z,110.00
2019-02-17T04:45:13.403Z,105.60
2019-02-17T04:50:23.725Z,103.70
2019-02-17T04:55:32.423Z,102.90
2019-02-17T05:00:40.202Z,101.25
2019-02-17T05:05:44.961Z,104.50
2019-02-17T05:10:54.042Z,104.50
2019-02-17T05:16:05.723Z,117.36
2019-02-17T05:21:18.104Z,110.18
2019-02-17T05:26:22.314Z,113.40
2019-02-17T05:31:29.402Z,115.90
2019-02-17T05:36:39.952Z,98.33
2019-02-17T05:41:49.503Z,111.91
2019-02-17T05:47:00.554Z,98.56
2019-02-17T05:52:04.894Z,103.80
2019-02-17T05:57:13.499Z,97.30
2019-02-17T06:02:16.555Z,88.00
2019-02-17T06:07:28.123Z,94.44
2019-02-17T06:12:37.900Z,94.92
2019-02-17T06:17:48.448Z,85.00
2019-02-17T06:22:58.863Z,85.50
2019-02-17T06:28:09.606Z,84.22
2019-02-17T06:33:19.794Z,80.78
2019-02-17T06:38:28.444Z,77.67
2019-02-17T06:43:36.818Z,78.33
2019-02-17T06:48:47.145Z,75.67
2019-02-17T06:53:57.147Z,69.44
2019-02-17T06:59:03.505Z,72.37
2019-02-17T07:04:09.584Z,72.29
2019-02-17T07:09:18.696Z,70.25
2019-02-17T07:14:25.258Z,73.25
2019-02-17T07:19:29.131Z,73.67
2019-02-17T07:24:35.722Z,73.62
2019-02-17T07:29:43.015Z,76.78
2019-02-17T07:34:50.787Z,74.11
2019-02-17T07:39:57.199Z,75.62
2019-02-17T07:45:06.120Z,78.44
2019-02-17T07:50:09.741Z,78.50
2019-02-17T07:55:14.407Z,78.00
2019-02-17T08:00:24.108Z,75.89
2019-02-17T08:05:31.335Z,74.78
2019-02-17T08:10:39.153Z,77.00
2019-02-17T08:15:48.099Z,72.00
2019-02-17T08:20:52.602Z,75.75
2019-02-17T08:25:59.739Z,76.25
2019-02-17T08:31:10.018Z,76.25
2019-02-17T08:36:14.335Z,75.00
2019-02-17T08:41:22.469Z,71.78
2019-02-17T08:46:28.866Z,67.12
2019-02-17T08:51:35.806Z,66.87
2019-02-17T08:56:42.893Z,66.22
2019-02-17T09:01:49.131Z,60.25
2019-02-17T09:06:53.527Z,59.75
2019-02-17T09:12:02.401Z,65.25
2019-02-17T09:17:08.626Z,62.25
2019-02-17T09:22:14.761Z,56.37
2019-02-17T09:27:21.327Z,59.75
2019-02-17T09:32:25.600Z,58.00
2019-02-17T09:37:32.626Z,54.00
2019-02-17T09:42:40.555Z,55.75
2019-02-17T09:47:46.653Z,50.00
2019-02-17T09:52:56.239Z,52.27
2019-02-17T09:58:01.380Z,56.00
2019-02-17T10:03:09.989Z,52.38
2019-02-17T10:08:13.424Z,53.50
2019-02-17T10:13:17.718Z,51.75
2019-02-17T10:18:26.284Z,46.13
2019-02-17T10:23:35.510Z,45.25
2019-02-17T10:28:42.563Z,47.25
2019-02-17T10:33:46.818Z,38.00
2019-02-17T10:38:55.355Z,40.63
2019-02-17T10:44:01.842Z,34.75
2019-02-17T10:49:09.884Z,47.62
2019-02-17T10:54:17.819Z,48.50
2019-02-17T10:59:24.942Z,40.75
2019-02-17T11:04:32.893Z,42.00
2019-02-17T11:09:40.830Z,41.63
2019-02-17T11:14:47.067Z,41.25
2019-02-17T11:19:51.730Z,40.50
2019-02-17T11:25:00.752Z,42.62
2019-02-17T11:30:19.620Z,44.38
2019-02-17T11:35:23.641Z,45.00
2019-02-17T11:40:30.328Z,47.38
2019-02-17T11:45:38.203Z,46.75
2019-02-17T11:50:46.288Z,43.00
2019-02-17T11:55:53.392Z,50.00
2019-02-17T12:01:00.279Z,48.63
2019-02-17T12:06:06.417Z,45.38
2019-02-17T12:11:14.602Z,46.88
2019-02-17T12:16:24.383Z,37.64
2019-02-17T12:21:32.387Z,44.63
2019-02-17T12:26:38.582Z,36.38
2019-02-17T12:31:43.266Z,33.00
2019-02-17T12:36:47.244Z,29.00
2019-02-17T12:41:51.232Z,23.50
2019-02-17T12:46:55.274Z,24.25
2019-02-17T12:51:59.190Z,27.33
2019-02-17T12:57:04.820Z,25.00
2019-02-17T13:02:11.369Z,17.86
2019-02-17T13:07:15.186Z,24.00
2019-02-17T13:12:19.030Z,22.00
2019-02-17T13:17:22.918Z,28.67
2019-02-17T13:22:29.483Z,19.00
2019-02-17T13:27:33.706Z,22.75
2019-02-17T13:32:39.560Z,20.75
2019-02-17T13:37:46.040Z,21.57
2019-02-17T13:42:51.303Z,19.14
2019-02-17T13:47:57.310Z,23.50
2019-02-17T13:53:11.054Z,24.50
2019-02-17T13:58:06.677Z,23.00
2019-02-17T14:03:11.938Z,19.43
2019-02-17T14:08:18.646Z,22.37
2019-02-17T14:13:22.902Z,22.67
2019-02-17T14:18:28.050Z,20.00
2019-02-17T14:23:35.456Z,23.38
2019-02-17T14:28:40.370Z,31.25
2019-02-17T14:33:58.118Z,33.50
2019-02-17T14:38:58.894Z,33.38
2019-02-17T14:44:03.173Z,25.00
2019-02-17T14:49:09.874Z,35.50
2019-02-17T14:54:14.205Z,30.60
2019-02-17T14:59:18.689Z,30.25
2019-02-17T15:04:22.913Z,26.67
2019-02-17T15:09:27.425Z,23.25
2019-02-17T15:14:32.074Z,21.50
2019-02-17T15:19:37.823Z,29.75
2019-02-17T15:24:41.394Z,23.75
2019-02-17T15:29:49.311Z,23.00
2019-02-17T15:34:55.039Z,26.50
2019-02-17T15:39:59.270Z,34.25
2019-02-17T15:45:09.470Z,30.12
2019-02-17T15:50:18.398Z,31.87
2019-02-17T15:55:26.689Z,33.63
2019-02-17T16:00:33.751Z,30.57
2019-02-17T16:05:39.339Z,33.00
2019-02-17T16:10:45.562Z,36.25
2019-02-17T16:15:50.499Z,33.75
2019-02-17T16:20:58.919Z,37.75
2019-02-17T16:26:06.301Z,42.50
2019-02-17T16:31:09.691Z,40.00
2019-02-17T16:36:13.830Z,41.00
2019-02-17T16:41:18.042Z,47.00
2019-02-17T16:46:26.499Z,43.87
2019-02-17T16:51:35.596Z,51.50
2019-02-17T16:56:41.417Z,54.00
2019-02-17T17:01:48.013Z,55.38
2019-02-17T17:06:57.100Z,53.75
2019-02-17T17:12:03.337Z,57.88
2019-02-17T17:17:07.159Z,55.50
2019-02-17T17:22:11.641Z,56.75
2019-02-17T17:27:20.552Z,61.37
2019-02-17T17:32:26.635Z,54.88
2019-02-17T17:37:30.739Z,56.25
2019-02-17T17:42:35.089Z,57.50
2019-02-17T17:47:39.271Z,57.50
2019-02-17T17:52:47.668Z,56.37
2019-02-17T17:57:57.036Z,62.56
2019-02-17T18:03:08.030Z,79.44
2019-02-17T18:08:15.170Z,67.00
2019-02-17T18:13:24.008Z,72.62
2019-02-17T18:18:33.658Z,92.33
2019-02-17T18:23:44.080Z,84.70
2019-02-17T18:28:53.034Z,74.87
2019-02-17T18:34:02.320Z,76.50
2019-02-17T18:39:11.151Z,75.50
2019-02-17T18:44:19.883Z,85.80
2019-02-17T18:49:28.652Z,69.12
2019-02-17T18:54:33.655Z,73.25
2019-02-17T18:59:40.224Z,72.67
2019-02-17T19:04:49.304Z,106.70
2019-02-17T19:09:58.307Z,90.40
2019-02-17T19:15:10.715Z,68.25
2019-02-17T19:20:27.367Z,67.11
2019-02-17T19:25:35.410Z,71.89
2019-02-17T19:30:45.150Z,79.22
2019-02-17T19:35:53.106Z,87.33
2019-02-17T19:41:02.581Z,76.89
2019-02-17T19:46:07.095Z,76.00
2019-02-17T19:51:15.118Z,74.44
2019-02-17T19:56:22.359Z,82.56
2019-02-17T20:01:31.746Z,79.00
2019-02-17T20:06:38.871Z,79.33
2019-02-17T20:11:48.416Z,79.89
2019-02-17T20:16:53.886Z,83.50
2019-02-17T20:22:05.567Z,108.20
2019-02-17T20:27:09.629Z,144.20
2019-02-17T20:32:20.189Z,87.22
2019-02-17T20:37:30.528Z,79.20
2019-02-17T20:42:35.519Z,78.71
2019-02-17T20:47:45.443Z,77.78
2019-02-17T20:52:52.342Z,73.33
2019-02-17T20:58:00.999Z,77.62
2019-02-17T21:03:06.035Z,81.29
2019-02-17T21:08:13.930Z,78.44
2019-02-17T21:13:20.565Z,77.22
2019-02-17T21:18:24.035Z,77.00
2019-02-17T21:23:31.767Z,75.22
2019-02-17T21:28:38.866Z,73.22
2019-02-17T21:33:43.331Z,74.00
2019-02-17T21:38:50.482Z,72.75
2019-02-17T21:43:58.469Z,78.00
2019-02-17T21:49:06.362Z,76.33
2019-02-17T21:54:14.974Z,76.87
2019-02-17T21:59:22.227Z,81.67
2019-02-17T22:04:29.139Z,77.78
2019-02-17T22:09:34.231Z,77.71
2019-02-17T22:14:44.327Z,77.89
2019-02-17T22:19:48.354Z,85.00
2019-02-17T22:24:59.197Z,80.11
2019-02-17T22:30:11.566Z,84.00
2019-02-17T22:35:15.218Z,89.00
2019-02-17T22:40:25.658Z,94.90
2019-02-17T22:45:33.582Z,98.33
2019-02-17T22:50:37.250Z,109.00
2019-02-17T22:55:42.899Z,118.29
2019-02-17T23:00:50.980Z,134.82
2019-02-17T23:05:54.803Z,121.00
2019-02-17T23:11:02.797Z,120.27
2019-02-17T23:16:06.301Z,121.00
2019-02-17T23:21:16.708Z,124.62
2019-02-17T23:26:25.414Z,124.58
2019-02-17T23:31:29.112Z,121.40
2019-02-17T23:36:33.811Z,124.83
2019-02-17T23:41:43.376Z,116.73
2019-02-17T23:46:54.427Z,108.00
2019-02-17T23:52:03.449Z,108.60
2019-02-17T23:57:14.616Z,103.70
